Aransas Pass — WDF5061 — position and weather

sailwx.info

Track history (hours):
 
Tides and Currents Weather Stations Pressure Air Temp Water Temp Dewpoint Dewpoint Depression Visibility Wind Speed Wind Dir Waves Ship Positions

Aransas Pass

Owner: Higman Barge Lines, Inc., Orange, TX. More information available from US FCC via Universal Licensing System and Coast Guard Vessel Documentation Center.

Last reported at 2017-Sep-20 08:49 UTC. Time now 2017-Oct-22 08:25 UTC.
Position N 29°34' W 090°31'.
Warning: this ship's position is 31 days out of date.

Length 26 m; draft 3 m.

Type: Towing. MMSI: 367458930.

Date/timePositionNaut miles runAvg speedWind from/ knotsBaromVisibWave heightAir tempDewpointWater temp
2017-Sep-20 08:49N 29°34' W 090°31'2 6.3
2017-Sep-20 08:30N 29°34' W 090°33'3 5.9
2017-Sep-20 07:59N 29°35' W 090°36'3 5.6
2017-Sep-20 07:30N 29°36' W 090°39'3 5.8
2017-Sep-20 07:00N 29°37' W 090°42'2 4.6
2017-Sep-20 06:30N 29°35' W 090°43'1 2.3
2017-Sep-20 06:00N 29°34' W 090°44'2 5.0
2017-Sep-20 05:30N 29°32' W 090°46'3 6.1
2017-Sep-20 05:00N 29°32' W 090°50'67 5.3
2017-Sep-19 16:24N 29°48' W 092°04'2 6.3
2017-Sep-19 16:00N 29°47' W 092°07'3 6.2
2017-Sep-19 15:31N 29°46' W 092°10'2 4.3
2017-Sep-19 15:00N 29°47' W 092°13'1 3.0
2017-Sep-19 14:30N 29°48' W 092°14'48 5.0
2017-Sep-19 04:47N 29°56' W 093°09'2 5.5
2017-Sep-19 04:29N 29°57' W 093°10'3 5.8
2017-Sep-19 04:00N 29°59' W 093°13'3 5.0
2017-Sep-19 03:30N 30°01' W 093°14'2 4.6
2017-Sep-19 03:00N 30°03' W 093°16'2 4.0
2017-Sep-19 02:30N 30°05' W 093°17'2 3.3
2017-Sep-19 02:00N 30°06' W 093°18'0 0.2
2017-Sep-19 01:30N 30°06' W 093°18'0 0.0
2017-Sep-19 01:00N 30°06' W 093°18'0 0.0
2017-Sep-19 00:30N 30°06' W 093°18'0 0.0
2017-Sep-19 00:00N 30°06' W 093°18'0 0.0
2017-Sep-18 23:30N 30°06' W 093°18'0 0.0
2017-Sep-18 23:00N 30°06' W 093°18'0 0.5
2017-Sep-18 22:30N 30°06' W 093°18'1 2.6
2017-Sep-18 22:00N 30°06' W 093°20'3 5.5
2017-Sep-18 21:30N 30°09' W 093°20'3 5.6
2017-Sep-18 21:00N 30°11' W 093°18'3 5.2
2017-Sep-18 20:30N 30°13' W 093°16'1 1.8
2017-Sep-18 20:00N 30°14' W 093°16'0 0.0
2017-Sep-18 19:28N 30°14' W 093°16'0 0.0
2017-Sep-18 18:10N 30°14' W 093°16'0 0.3
2017-Sep-18 17:58N 30°14' W 093°16'0 0.8
2017-Sep-18 17:30N 30°13' W 093°15'3 6.1
2017-Sep-18 17:00N 30°11' W 093°18'3 6.9
2017-Sep-18 16:30N 30°08' W 093°20'2 4.9
2017-Sep-18 16:00N 30°06' W 093°19'2 3.2
2017-Sep-18 15:30N 30°05' W 093°17'2 3.8
2017-Sep-18 15:00N 30°04' W 093°16'0 0.0
2017-Sep-18 14:30N 30°04' W 093°16'2 4.1
2017-Sep-18 14:00N 30°02' W 093°15'3 5.2
2017-Sep-18 13:30N 29°60' W 093°13'2 3.6
2017-Sep-18 13:00N 29°58' W 093°12'3 6.0
2017-Sep-18 12:30N 29°56' W 093°10'47 4.5
2017-Sep-18 01:56N 29°49' W 092°16'2 5.3
2017-Sep-18 01:30N 29°48' W 092°14'2 4.7
2017-Sep-18 01:00N 29°47' W 092°11'1 2.0
2017-Sep-18 00:30N 29°47' W 092°10'3 6.2
2017-Sep-18 00:00N 29°48' W 092°06'68 4.9
2017-Sep-17 10:11N 29°32' W 090°50'1 6.0
2017-Sep-17 09:58N 29°32' W 090°49'3 5.6
2017-Sep-17 09:30N 29°32' W 090°46'3 5.1
2017-Sep-17 09:00N 29°34' W 090°43'2 4.2
2017-Sep-17 08:30N 29°36' W 090°43'1 2.6
2017-Sep-17 08:00N 29°37' W 090°41'0 0.5
2017-Sep-17 07:30N 29°36' W 090°41'1 2.3
2017-Sep-17 07:00N 29°36' W 090°40'3 5.3
2017-Sep-17 06:30N 29°35' W 090°37'3 5.4
2017-Sep-17 06:00N 29°34' W 090°34'  
2017-Sep-14 16:47N 29°34' W 090°33'2 4.7
2017-Sep-14 16:21N 29°35' W 090°35'2 4.9
2017-Sep-14 16:00N 29°35' W 090°37'2 4.8
2017-Sep-14 15:30N 29°36' W 090°40'2 4.2
2017-Sep-14 15:00N 29°37' W 090°42'2 3.9
2017-Sep-14 14:30N 29°35' W 090°43'2 3.6
2017-Sep-14 14:00N 29°34' W 090°44'1 1.7
2017-Sep-14 13:30N 29°33' W 090°45'1 1.6
2017-Sep-14 13:00N 29°33' W 090°46'2 3.3
2017-Sep-14 12:30N 29°32' W 090°47'69 4.0
2017-Sep-13 19:17N 29°48' W 092°05'1 5.0
2017-Sep-13 19:00N 29°48' W 092°06'3 5.2
2017-Sep-13 18:30N 29°47' W 092°09'2 4.8
2017-Sep-13 18:00N 29°47' W 092°12'2 3.8
2017-Sep-13 17:30N 29°48' W 092°14'0 0.1
2017-Sep-13 17:00N 29°48' W 092°14'0 0.7
2017-Sep-13 16:30N 29°48' W 092°14'48 4.6
2017-Sep-13 05:58N 29°56' W 093°09'2 3.8
2017-Sep-13 05:30N 29°57' W 093°10'2 4.1
2017-Sep-13 05:00N 29°59' W 093°12'2 3.0
2017-Sep-13 04:30N 29°60' W 093°13'2 4.0
2017-Sep-13 04:00N 30°01' W 093°14'1 1.5
2017-Sep-13 03:30N 30°02' W 093°15'2 3.2
2017-Sep-13 03:00N 30°03' W 093°16'2 4.2
2017-Sep-13 02:30N 30°05' W 093°17'2 3.2
2017-Sep-13 02:00N 30°06' W 093°18'1 2.1
2017-Sep-13 01:30N 30°06' W 093°20'3 5.9
2017-Sep-13 01:00N 30°09' W 093°20'3 6.0
2017-Sep-13 00:30N 30°11' W 093°18'3 5.1
2017-Sep-13 00:00N 30°13' W 093°16'1 1.2
2017-Sep-12 23:30N 30°14' W 093°16'1 1.2
2017-Sep-12 23:00N 30°14' W 093°15'0 0.0
2017-Sep-12 22:30N 30°14' W 093°15'0 0.0
2017-Sep-12 22:00N 30°14' W 093°15'0 0.0
2017-Sep-12 21:30N 30°14' W 093°15'0 0.0
2017-Sep-12 21:00N 30°14' W 093°15'0 0.0
2017-Sep-12 20:30N 30°14' W 093°15'0 0.0
2017-Sep-12 20:00N 30°14' W 093°15'0 0.0
2017-Sep-12 19:30N 30°14' W 093°15'0 0.0
2017-Sep-12 19:00N 30°14' W 093°15'0 0.0
2017-Sep-12 18:30N 30°14' W 093°15'0 0.0
2017-Sep-12 18:00N 30°14' W 093°15'0 0.0
2017-Sep-12 17:30N 30°14' W 093°15'0 0.0
2017-Sep-12 17:00N 30°14' W 093°15'0 0.0
2017-Sep-12 16:30N 30°14' W 093°15'0 0.0
2017-Sep-12 16:00N 30°14' W 093°15'0 0.0
2017-Sep-12 15:30N 30°14' W 093°15'0 0.0
2017-Sep-12 15:00N 30°14' W 093°15'0 0.0
2017-Sep-12 14:30N 30°14' W 093°15'0 0.0
2017-Sep-12 14:00N 30°14' W 093°15'0 0.0
2017-Sep-12 10:27N 30°14' W 093°15'0 0.0
2017-Sep-12 06:35N 30°14' W 093°15'0 0.0
2017-Sep-12 06:27N 30°14' W 093°15'0 0.0
2017-Sep-12 06:00N 30°14' W 093°15'0 0.0
2017-Sep-12 05:29N 30°14' W 093°15'0 0.0
2017-Sep-12 05:00N 30°14' W 093°15'0 0.0
2017-Sep-12 04:30N 30°14' W 093°15'0 0.0
2017-Sep-12 04:00N 30°14' W 093°15'0 0.0
2017-Sep-12 03:30N 30°14' W 093°15'0 0.0
2017-Sep-12 03:00N 30°14' W 093°15'0 0.0
2017-Sep-12 02:30N 30°14' W 093°15'0 0.0
2017-Sep-12 02:00N 30°14' W 093°15'0 0.0
2017-Sep-12 01:30N 30°14' W 093°15'0 0.0
2017-Sep-12 01:00N 30°14' W 093°15'0 0.0
2017-Sep-12 00:30N 30°14' W 093°15'1 2.8
2017-Sep-12 00:00N 30°13' W 093°16'3 6.9
2017-Sep-11 23:30N 30°11' W 093°19'3 6.1
2017-Sep-11 23:00N 30°08' W 093°20'2 5.0
2017-Sep-11 22:30N 30°05' W 093°20'0 0.0
2017-Sep-11 22:00N 30°05' W 093°20'1 1.0
2017-Sep-11 21:30N 30°05' W 093°20'1 2.0
2017-Sep-11 21:00N 30°06' W 093°20'4 7.6
2017-Sep-11 20:30N 30°10' W 093°19'3 6.4
2017-Sep-11 20:00N 30°12' W 093°17'2 4.4
2017-Sep-11 19:30N 30°14' W 093°15'0 0.5
2017-Sep-11 18:57N 30°14' W 093°15'0 0.1
2017-Sep-11 18:30N 30°14' W 093°15'0 0.0
2017-Sep-11 18:00N 30°14' W 093°15'0 0.0
2017-Sep-11 17:30N 30°14' W 093°15'0 0.0
2017-Sep-11 17:00N 30°14' W 093°15'0 0.0
2017-Sep-11 16:30N 30°14' W 093°15'0 0.0
2017-Sep-11 16:00N 30°14' W 093°15'0 0.0
2017-Sep-11 15:30N 30°14' W 093°15'0 0.0
2017-Sep-11 14:52N 30°14' W 093°15'0 0.0
2017-Sep-11 14:30N 30°14' W 093°15'0 0.0
2017-Sep-11 14:00N 30°14' W 093°15'0 0.0
2017-Sep-11 13:28N 30°14' W 093°15'0 0.0
2017-Sep-11 12:01N 30°14' W 093°15'0 0.0
2017-Sep-11 12:00N 30°14' W 093°15'0 0.0
2017-Sep-11 11:28N 30°14' W 093°15'0 0.0
2017-Sep-11 11:00N 30°14' W 093°15'0 0.0
2017-Sep-11 10:30N 30°14' W 093°15'0 0.0
2017-Sep-11 09:57N 30°14' W 093°15'0 0.0
2017-Sep-11 09:30N 30°14' W 093°15'0 0.0
2017-Sep-11 09:00N 30°14' W 093°15'0 0.0
2017-Sep-11 08:28N 30°14' W 093°15'0 0.1
2017-Sep-11 08:00N 30°14' W 093°15'1 1.6
2017-Sep-11 07:29N 30°13' W 093°16'4 6.1
2017-Sep-11 06:51N 30°11' W 093°19'2 6.7
2017-Sep-11 06:29N 30°08' W 093°20'3 5.4
2017-Sep-11 05:56N 30°05' W 093°20'0 0.1
2017-Sep-11 05:29N 30°05' W 093°20'0 0.7
2017-Sep-11 05:00N 30°06' W 093°20'3 6.0
2017-Sep-11 04:28N 30°09' W 093°20'3 5.6
2017-Sep-11 04:00N 30°11' W 093°19'3 5.2
2017-Sep-11 03:29N 30°12' W 093°16'1 2.0
2017-Sep-11 02:55N 30°14' W 093°16'0 0.0
2017-Sep-11 02:28N 30°14' W 093°16'0 0.0
2017-Sep-11 01:57N 30°14' W 093°16'0 0.0
2017-Sep-11 01:30N 30°14' W 093°16'0 0.0
2017-Sep-11 01:00N 30°14' W 093°16'0 0.0
2017-Sep-11 00:30N 30°14' W 093°16'0 0.0
2017-Sep-11 00:00N 30°14' W 093°16'0 0.0
2017-Sep-10 23:29N 30°14' W 093°16'0 0.0
2017-Sep-10 23:00N 30°14' W 093°16'0 0.0
2017-Sep-10 22:30N 30°14' W 093°16'0 0.0
2017-Sep-10 22:00N 30°14' W 093°16'0 0.0
2017-Sep-10 21:30N 30°14' W 093°16'0 0.0
2017-Sep-10 21:00N 30°14' W 093°16'0 0.0
2017-Sep-10 20:30N 30°14' W 093°16'0 0.0
2017-Sep-10 20:00N 30°14' W 093°16'0 0.0
2017-Sep-10 19:30N 30°14' W 093°16'0 0.0
2017-Sep-10 19:00N 30°14' W 093°16'0 0.0
2017-Sep-10 18:30N 30°14' W 093°16'0 0.0
2017-Sep-10 17:58N 30°14' W 093°16'0 0.0
2017-Sep-10 17:29N 30°14' W 093°16'0 0.0
2017-Sep-10 16:59N 30°14' W 093°16'0 0.0
2017-Sep-10 16:30N 30°14' W 093°16'0 0.0
2017-Sep-10 16:00N 30°14' W 093°16'0 0.0
2017-Sep-10 15:30N 30°14' W 093°16'0 0.0
2017-Sep-10 15:00N 30°14' W 093°16'0 0.0
2017-Sep-10 14:00N 30°14' W 093°16'0 0.0
2017-Sep-10 12:50N 30°14' W 093°16'0 0.0
2017-Sep-10 12:30N 30°14' W 093°16'0 0.0
2017-Sep-10 11:57N 30°14' W 093°16'0 0.0
2017-Sep-10 10:17N 30°14' W 093°16'0 0.0
2017-Sep-10 10:00N 30°14' W 093°16'0 0.0
2017-Sep-10 09:30N 30°14' W 093°16'0 0.0
2017-Sep-10 09:00N 30°14' W 093°16'  
Track history (hours):
 
Tides and Currents Weather Stations Pressure Air Temp Water Temp Dewpoint Dewpoint Depression Visibility Wind Speed Wind Dir Waves Ship Positions

Aransas Pass

Owner: Higman Barge Lines, Inc., Orange, TX. More information available from US FCC via Universal Licensing System and Coast Guard Vessel Documentation Center.

Last reported at 2017-Sep-20 08:49 UTC. Time now 2017-Oct-22 08:25 UTC.
Position N 29°34' W 090°31'.
Warning: this ship's position is 31 days out of date.

Length 26 m; draft 3 m.

Type: Towing. MMSI: 367458930.

Date/timePositionNaut miles runAvg speedWind from/ knotsBaromVisibWave heightAir tempDewpointWater temp
2017-Sep-20 08:49N 29°34' W 090°31'2 6.3
2017-Sep-20 08:30N 29°34' W 090°33'3 5.9
2017-Sep-20 07:59N 29°35' W 090°36'3 5.6
2017-Sep-20 07:30N 29°36' W 090°39'3 5.8
2017-Sep-20 07:00N 29°37' W 090°42'2 4.6
2017-Sep-20 06:30N 29°35' W 090°43'1 2.3
2017-Sep-20 06:00N 29°34' W 090°44'2 5.0
2017-Sep-20 05:30N 29°32' W 090°46'3 6.1
2017-Sep-20 05:00N 29°32' W 090°50'67 5.3
2017-Sep-19 16:24N 29°48' W 092°04'2 6.3
2017-Sep-19 16:00N 29°47' W 092°07'3 6.2
2017-Sep-19 15:31N 29°46' W 092°10'2 4.3
2017-Sep-19 15:00N 29°47' W 092°13'1 3.0
2017-Sep-19 14:30N 29°48' W 092°14'48 5.0
2017-Sep-19 04:47N 29°56' W 093°09'2 5.5
2017-Sep-19 04:29N 29°57' W 093°10'3 5.8
2017-Sep-19 04:00N 29°59' W 093°13'3 5.0
2017-Sep-19 03:30N 30°01' W 093°14'2 4.6
2017-Sep-19 03:00N 30°03' W 093°16'2 4.0
2017-Sep-19 02:30N 30°05' W 093°17'2 3.3
2017-Sep-19 02:00N 30°06' W 093°18'0 0.2
2017-Sep-19 01:30N 30°06' W 093°18'0 0.0
2017-Sep-19 01:00N 30°06' W 093°18'0 0.0
2017-Sep-19 00:30N 30°06' W 093°18'0 0.0
2017-Sep-19 00:00N 30°06' W 093°18'0 0.0
2017-Sep-18 23:30N 30°06' W 093°18'0 0.0
2017-Sep-18 23:00N 30°06' W 093°18'0 0.5
2017-Sep-18 22:30N 30°06' W 093°18'1 2.6
2017-Sep-18 22:00N 30°06' W 093°20'3 5.5
2017-Sep-18 21:30N 30°09' W 093°20'3 5.6
2017-Sep-18 21:00N 30°11' W 093°18'3 5.2
2017-Sep-18 20:30N 30°13' W 093°16'1 1.8
2017-Sep-18 20:00N 30°14' W 093°16'0 0.0
2017-Sep-18 19:28N 30°14' W 093°16'0 0.0
2017-Sep-18 18:10N 30°14' W 093°16'0 0.3
2017-Sep-18 17:58N 30°14' W 093°16'0 0.8
2017-Sep-18 17:30N 30°13' W 093°15'3 6.1
2017-Sep-18 17:00N 30°11' W 093°18'3 6.9
2017-Sep-18 16:30N 30°08' W 093°20'2 4.9
2017-Sep-18 16:00N 30°06' W 093°19'2 3.2
2017-Sep-18 15:30N 30°05' W 093°17'2 3.8
2017-Sep-18 15:00N 30°04' W 093°16'0 0.0
2017-Sep-18 14:30N 30°04' W 093°16'2 4.1
2017-Sep-18 14:00N 30°02' W 093°15'3 5.2
2017-Sep-18 13:30N 29°60' W 093°13'2 3.6
2017-Sep-18 13:00N 29°58' W 093°12'3 6.0
2017-Sep-18 12:30N 29°56' W 093°10'47 4.5
2017-Sep-18 01:56N 29°49' W 092°16'2 5.3
2017-Sep-18 01:30N 29°48' W 092°14'2 4.7
2017-Sep-18 01:00N 29°47' W 092°11'1 2.0
2017-Sep-18 00:30N 29°47' W 092°10'3 6.2
2017-Sep-18 00:00N 29°48' W 092°06'68 4.9
2017-Sep-17 10:11N 29°32' W 090°50'1 6.0
2017-Sep-17 09:58N 29°32' W 090°49'3 5.6
2017-Sep-17 09:30N 29°32' W 090°46'3 5.1
2017-Sep-17 09:00N 29°34' W 090°43'2 4.2
2017-Sep-17 08:30N 29°36' W 090°43'1 2.6
2017-Sep-17 08:00N 29°37' W 090°41'0 0.5
2017-Sep-17 07:30N 29°36' W 090°41'1 2.3
2017-Sep-17 07:00N 29°36' W 090°40'3 5.3
2017-Sep-17 06:30N 29°35' W 090°37'3 5.4
2017-Sep-17 06:00N 29°34' W 090°34'  
2017-Sep-14 16:47N 29°34' W 090°33'2 4.7
2017-Sep-14 16:21N 29°35' W 090°35'2 4.9
2017-Sep-14 16:00N 29°35' W 090°37'2 4.8
2017-Sep-14 15:30N 29°36' W 090°40'2 4.2
2017-Sep-14 15:00N 29°37' W 090°42'2 3.9
2017-Sep-14 14:30N 29°35' W 090°43'2 3.6
2017-Sep-14 14:00N 29°34' W 090°44'1 1.7
2017-Sep-14 13:30N 29°33' W 090°45'1 1.6
2017-Sep-14 13:00N 29°33' W 090°46'2 3.3
2017-Sep-14 12:30N 29°32' W 090°47'69 4.0
2017-Sep-13 19:17N 29°48' W 092°05'1 5.0
2017-Sep-13 19:00N 29°48' W 092°06'3 5.2
2017-Sep-13 18:30N 29°47' W 092°09'2 4.8
2017-Sep-13 18:00N 29°47' W 092°12'2 3.8
2017-Sep-13 17:30N 29°48' W 092°14'0 0.1
2017-Sep-13 17:00N 29°48' W 092°14'0 0.7
2017-Sep-13 16:30N 29°48' W 092°14'48 4.6
2017-Sep-13 05:58N 29°56' W 093°09'2 3.8
2017-Sep-13 05:30N 29°57' W 093°10'2 4.1
2017-Sep-13 05:00N 29°59' W 093°12'2 3.0
2017-Sep-13 04:30N 29°60' W 093°13'2 4.0
2017-Sep-13 04:00N 30°01' W 093°14'1 1.5
2017-Sep-13 03:30N 30°02' W 093°15'2 3.2
2017-Sep-13 03:00N 30°03' W 093°16'2 4.2
2017-Sep-13 02:30N 30°05' W 093°17'2 3.2
2017-Sep-13 02:00N 30°06' W 093°18'1 2.1
2017-Sep-13 01:30N 30°06' W 093°20'3 5.9
2017-Sep-13 01:00N 30°09' W 093°20'3 6.0
2017-Sep-13 00:30N 30°11' W 093°18'3 5.1
2017-Sep-13 00:00N 30°13' W 093°16'1 1.2
2017-Sep-12 23:30N 30°14' W 093°16'1 1.2
2017-Sep-12 23:00N 30°14' W 093°15'0 0.0
2017-Sep-12 22:30N 30°14' W 093°15'0 0.0
2017-Sep-12 22:00N 30°14' W 093°15'0 0.0
2017-Sep-12 21:30N 30°14' W 093°15'0 0.0
2017-Sep-12 21:00N 30°14' W 093°15'0 0.0
2017-Sep-12 20:30N 30°14' W 093°15'0 0.0
2017-Sep-12 20:00N 30°14' W 093°15'0 0.0
2017-Sep-12 19:30N 30°14' W 093°15'0 0.0
2017-Sep-12 19:00N 30°14' W 093°15'0 0.0
2017-Sep-12 18:30N 30°14' W 093°15'0 0.0
2017-Sep-12 18:00N 30°14' W 093°15'0 0.0
2017-Sep-12 17:30N 30°14' W 093°15'0 0.0
2017-Sep-12 17:00N 30°14' W 093°15'0 0.0
2017-Sep-12 16:30N 30°14' W 093°15'0 0.0
2017-Sep-12 16:00N 30°14' W 093°15'0 0.0
2017-Sep-12 15:30N 30°14' W 093°15'0 0.0
2017-Sep-12 15:00N 30°14' W 093°15'0 0.0
2017-Sep-12 14:30N 30°14' W 093°15'0 0.0
2017-Sep-12 14:00N 30°14' W 093°15'0 0.0
2017-Sep-12 10:27N 30°14' W 093°15'0 0.0
2017-Sep-12 06:35N 30°14' W 093°15'0 0.0
2017-Sep-12 06:27N 30°14' W 093°15'0 0.0
2017-Sep-12 06:00N 30°14' W 093°15'0 0.0
2017-Sep-12 05:29N 30°14' W 093°15'0 0.0
2017-Sep-12 05:00N 30°14' W 093°15'0 0.0
2017-Sep-12 04:30N 30°14' W 093°15'0 0.0
2017-Sep-12 04:00N 30°14' W 093°15'0 0.0
2017-Sep-12 03:30N 30°14' W 093°15'0 0.0
2017-Sep-12 03:00N 30°14' W 093°15'0 0.0
2017-Sep-12 02:30N 30°14' W 093°15'0 0.0
2017-Sep-12 02:00N 30°14' W 093°15'0 0.0
2017-Sep-12 01:30N 30°14' W 093°15'0 0.0
2017-Sep-12 01:00N 30°14' W 093°15'0 0.0
2017-Sep-12 00:30N 30°14' W 093°15'1 2.8
2017-Sep-12 00:00N 30°13' W 093°16'3 6.9
2017-Sep-11 23:30N 30°11' W 093°19'3 6.1
2017-Sep-11 23:00N 30°08' W 093°20'2 5.0
2017-Sep-11 22:30N 30°05' W 093°20'0 0.0
2017-Sep-11 22:00N 30°05' W 093°20'1 1.0
2017-Sep-11 21:30N 30°05' W 093°20'1 2.0
2017-Sep-11 21:00N 30°06' W 093°20'4 7.6
2017-Sep-11 20:30N 30°10' W 093°19'3 6.4
2017-Sep-11 20:00N 30°12' W 093°17'2 4.4
2017-Sep-11 19:30N 30°14' W 093°15'0 0.5
2017-Sep-11 18:57N 30°14' W 093°15'0 0.1
2017-Sep-11 18:30N 30°14' W 093°15'0 0.0
2017-Sep-11 18:00N 30°14' W 093°15'0 0.0
2017-Sep-11 17:30N 30°14' W 093°15'0 0.0
2017-Sep-11 17:00N 30°14' W 093°15'0 0.0
2017-Sep-11 16:30N 30°14' W 093°15'0 0.0
2017-Sep-11 16:00N 30°14' W 093°15'0 0.0
2017-Sep-11 15:30N 30°14' W 093°15'0 0.0
2017-Sep-11 14:52N 30°14' W 093°15'0 0.0
2017-Sep-11 14:30N 30°14' W 093°15'0 0.0
2017-Sep-11 14:00N 30°14' W 093°15'0 0.0
2017-Sep-11 13:28N 30°14' W 093°15'0 0.0
2017-Sep-11 12:01N 30°14' W 093°15'0 0.0
2017-Sep-11 12:00N 30°14' W 093°15'0 0.0
2017-Sep-11 11:28N 30°14' W 093°15'0 0.0
2017-Sep-11 11:00N 30°14' W 093°15'0 0.0
2017-Sep-11 10:30N 30°14' W 093°15'0 0.0
2017-Sep-11 09:57N 30°14' W 093°15'0 0.0
2017-Sep-11 09:30N 30°14' W 093°15'0 0.0
2017-Sep-11 09:00N 30°14' W 093°15'0 0.0
2017-Sep-11 08:28N 30°14' W 093°15'0 0.1
2017-Sep-11 08:00N 30°14' W 093°15'1 1.6
2017-Sep-11 07:29N 30°13' W 093°16'4 6.1
2017-Sep-11 06:51N 30°11' W 093°19'2 6.7
2017-Sep-11 06:29N 30°08' W 093°20'3 5.4
2017-Sep-11 05:56N 30°05' W 093°20'0 0.1
2017-Sep-11 05:29N 30°05' W 093°20'0 0.7
2017-Sep-11 05:00N 30°06' W 093°20'3 6.0
2017-Sep-11 04:28N 30°09' W 093°20'3 5.6
2017-Sep-11 04:00N 30°11' W 093°19'3 5.2
2017-Sep-11 03:29N 30°12' W 093°16'1 2.0
2017-Sep-11 02:55N 30°14' W 093°16'0 0.0
2017-Sep-11 02:28N 30°14' W 093°16'0 0.0
2017-Sep-11 01:57N 30°14' W 093°16'0 0.0
2017-Sep-11 01:30N 30°14' W 093°16'0 0.0
2017-Sep-11 01:00N 30°14' W 093°16'0 0.0
2017-Sep-11 00:30N 30°14' W 093°16'0 0.0
2017-Sep-11 00:00N 30°14' W 093°16'0 0.0
2017-Sep-10 23:29N 30°14' W 093°16'0 0.0
2017-Sep-10 23:00N 30°14' W 093°16'0 0.0
2017-Sep-10 22:30N 30°14' W 093°16'0 0.0
2017-Sep-10 22:00N 30°14' W 093°16'0 0.0
2017-Sep-10 21:30N 30°14' W 093°16'0 0.0
2017-Sep-10 21:00N 30°14' W 093°16'0 0.0
2017-Sep-10 20:30N 30°14' W 093°16'0 0.0
2017-Sep-10 20:00N 30°14' W 093°16'0 0.0
2017-Sep-10 19:30N 30°14' W 093°16'0 0.0
2017-Sep-10 19:00N 30°14' W 093°16'0 0.0
2017-Sep-10 18:30N 30°14' W 093°16'0 0.0
2017-Sep-10 17:58N 30°14' W 093°16'0 0.0
2017-Sep-10 17:29N 30°14' W 093°16'0 0.0
2017-Sep-10 16:59N 30°14' W 093°16'0 0.0
2017-Sep-10 16:30N 30°14' W 093°16'0 0.0
2017-Sep-10 16:00N 30°14' W 093°16'0 0.0
2017-Sep-10 15:30N 30°14' W 093°16'0 0.0
2017-Sep-10 15:00N 30°14' W 093°16'0 0.0
2017-Sep-10 14:00N 30°14' W 093°16'0 0.0
2017-Sep-10 12:50N 30°14' W 093°16'0 0.0
2017-Sep-10 12:30N 30°14' W 093°16'0 0.0
2017-Sep-10 11:57N 30°14' W 093°16'0 0.0
2017-Sep-10 10:17N 30°14' W 093°16'0 0.0
2017-Sep-10 10:00N 30°14' W 093°16'0 0.0
2017-Sep-10 09:30N 30°14' W 093°16'0 0.0
2017-Sep-10 09:00N 30°14' W 093°16'  

Dump ship's entire track history